sensor_id;sensor_type;location;lat;lon;timestamp;temperature;humidity
4596;DHT22;2310;49.978;8.742;2022-12-15T00:00:58;-0.30;99.90
4596;DHT22;2310;49.978;8.742;2022-12-15T00:05:18;-0.20;99.90
4596;DHT22;2310;49.978;8.742;2022-12-15T00:09:38;-0.20;99.90
4596;DHT22;2310;49.978;8.742;2022-12-15T00:13:58;-0.30;99.90
4596;DHT22;2310;49.978;8.742;2022-12-15T00:18:18;-0.30;99.90
4596;DHT22;2310;49.978;8.742;2022-12-15T00:22:38;-0.40;99.90
4596;DHT22;2310;49.978;8.742;2022-12-15T00:26:58;-0.40;99.90
4596;DHT22;2310;49.978;8.742;2022-12-15T00:31:17;-0.40;99.90
4596;DHT22;2310;49.978;8.742;2022-12-15T00:35:38;-0.30;99.90
4596;DHT22;2310;49.978;8.742;2022-12-15T00:39:58;-0.30;99.90
4596;DHT22;2310;49.978;8.742;2022-12-15T00:44:01;-0.20;99.90
4596;DHT22;2310;49.978;8.742;2022-12-15T00:48:03;-0.10;99.90
4596;DHT22;2310;49.978;8.742;2022-12-15T00:52:05;0.00;99.90
4596;DHT22;2310;49.978;8.742;2022-12-15T00:56:26;0.00;99.90
4596;DHT22;2310;49.978;8.742;2022-12-15T01:00:46;0.00;99.90
4596;DHT22;2310;49.978;8.742;2022-12-15T01:05:08;0.10;99.90
4596;DHT22;2310;49.978;8.742;2022-12-15T01:09:29;0.10;99.90
4596;DHT22;2310;49.978;8.742;2022-12-15T01:13:49;-0.10;99.90
4596;DHT22;2310;49.978;8.742;2022-12-15T01:18:10;-0.10;99.90
4596;DHT22;2310;49.978;8.742;2022-12-15T01:22:31;-0.10;99.90
4596;DHT22;2310;49.978;8.742;2022-12-15T01:26:34;-0.20;99.90
4596;DHT22;2310;49.978;8.742;2022-12-15T01:30:36;-0.20;99.90
4596;DHT22;2310;49.978;8.742;2022-12-15T01:34:39;-0.10;99.90
4596;DHT22;2310;49.978;8.742;2022-12-15T01:38:41;-0.20;99.90
4596;DHT22;2310;49.978;8.742;2022-12-15T01:42:44;-0.20;99.90
4596;DHT22;2310;49.978;8.742;2022-12-15T01:46:48;-0.30;99.90
4596;DHT22;2310;49.978;8.742;2022-12-15T01:55:03;-0.20;99.90
4596;DHT22;2310;49.978;8.742;2022-12-15T01:59:07;-0.30;99.90
4596;DHT22;2310;49.978;8.742;2022-12-15T02:03:12;-0.20;99.90
4596;DHT22;2310;49.978;8.742;2022-12-15T02:07:15;-0.10;99.90
4596;DHT22;2310;49.978;8.742;2022-12-15T02:11:41;-0.10;99.90
4596;DHT22;2310;49.978;8.742;2022-12-15T02:15:52;-0.20;99.90
4596;DHT22;2310;49.978;8.742;2022-12-15T02:33:10;-0.40;99.90
4596;DHT22;2310;49.978;8.742;2022-12-15T02:41:38;-0.60;99.90
4596;DHT22;2310;49.978;8.742;2022-12-15T02:45:48;-0.50;99.90
4596;DHT22;2310;49.978;8.742;2022-12-15T02:50:07;-0.50;99.90
4596;DHT22;2310;49.978;8.742;2022-12-15T03:02:41;-0.70;99.90
4596;DHT22;2310;49.978;8.742;2022-12-15T03:06:43;-1.00;99.90
4596;DHT22;2310;49.978;8.742;2022-12-15T03:10:45;-1.00;99.90
4596;DHT22;2310;49.978;8.742;2022-12-15T03:14:46;-1.00;99.90
4596;DHT22;2310;49.978;8.742;2022-12-15T03:18:47;-1.20;99.90
4596;DHT22;2310;49.978;8.742;2022-12-15T03:22:49;-1.20;99.90
4596;DHT22;2310;49.978;8.742;2022-12-15T03:26:50;-1.30;99.90
4596;DHT22;2310;49.978;8.742;2022-12-15T03:30:51;-1.20;99.90
4596;DHT22;2310;49.978;8.742;2022-12-15T03:34:53;-1.30;99.90
4596;DHT22;2310;49.978;8.742;2022-12-15T03:38:55;-1.30;99.90
4596;DHT22;2310;49.978;8.742;2022-12-15T03:42:56;-1.20;99.90
4596;DHT22;2310;49.978;8.742;2022-12-15T03:46:58;-1.20;99.90
4596;DHT22;2310;49.978;8.742;2022-12-15T03:51:01;-1.20;99.90
4596;DHT22;2310;49.978;8.742;2022-12-15T03:55:03;-1.30;99.90
4596;DHT22;2310;49.978;8.742;2022-12-15T03:59:05;-1.30;99.90
4596;DHT22;2310;49.978;8.742;2022-12-15T04:03:06;-1.20;99.90
4596;DHT22;2310;49.978;8.742;2022-12-15T04:07:07;-1.30;99.90
4596;DHT22;2310;49.978;8.742;2022-12-15T04:11:09;-1.20;99.90
4596;DHT22;2310;49.978;8.742;2022-12-15T04:15:10;-1.10;99.90
4596;DHT22;2310;49.978;8.742;2022-12-15T04:19:12;-1.00;99.90
4596;DHT22;2310;49.978;8.742;2022-12-15T04:23:31;-1.00;99.90
4596;DHT22;2310;49.978;8.742;2022-12-15T04:27:33;-1.10;99.90
4596;DHT22;2310;49.978;8.742;2022-12-15T04:31:55;-1.00;99.90
4596;DHT22;2310;49.978;8.742;2022-12-15T04:36:15;-1.00;99.90
4596;DHT22;2310;49.978;8.742;2022-12-15T04:40:35;-1.00;99.90
4596;DHT22;2310;49.978;8.742;2022-12-15T04:45:01;-1.00;99.90
4596;DHT22;2310;49.978;8.742;2022-12-15T04:49:21;-1.00;99.90
4596;DHT22;2310;49.978;8.742;2022-12-15T04:53:44;-0.90;99.90
4596;DHT22;2310;49.978;8.742;2022-12-15T04:58:08;-1.00;99.90
4596;DHT22;2310;49.978;8.742;2022-12-15T05:02:26;-0.90;99.90
4596;DHT22;2310;49.978;8.742;2022-12-15T05:06:47;-0.90;99.90
4596;DHT22;2310;49.978;8.742;2022-12-15T05:11:07;-0.80;99.90
4596;DHT22;2310;49.978;8.742;2022-12-15T05:15:27;-1.10;99.90
4596;DHT22;2310;49.978;8.742;2022-12-15T05:19:47;-1.20;99.90
4596;DHT22;2310;49.978;8.742;2022-12-15T05:24:07;-1.00;99.90
4596;DHT22;2310;49.978;8.742;2022-12-15T05:28:27;-1.00;99.90
4596;DHT22;2310;49.978;8.742;2022-12-15T05:32:47;-0.90;99.90
4596;DHT22;2310;49.978;8.742;2022-12-15T05:36:50;-1.00;99.90
4596;DHT22;2310;49.978;8.742;2022-12-15T05:40:51;-1.10;99.90
4596;DHT22;2310;49.978;8.742;2022-12-15T05:44:52;-1.10;99.90
4596;DHT22;2310;49.978;8.742;2022-12-15T05:48:53;-1.20;99.90
4596;DHT22;2310;49.978;8.742;2022-12-15T05:52:57;-1.20;99.90
4596;DHT22;2310;49.978;8.742;2022-12-15T05:56:58;-1.30;99.90
4596;DHT22;2310;49.978;8.742;2022-12-15T06:01:08;-1.40;99.90
4596;DHT22;2310;49.978;8.742;2022-12-15T06:05:09;-1.60;99.90
4596;DHT22;2310;49.978;8.742;2022-12-15T06:09:11;-1.80;99.90
4596;DHT22;2310;49.978;8.742;2022-12-15T06:13:12;-1.70;99.90
4596;DHT22;2310;49.978;8.742;2022-12-15T06:17:13;-1.70;99.90
4596;DHT22;2310;49.978;8.742;2022-12-15T06:21:17;-1.50;99.90
4596;DHT22;2310;49.978;8.742;2022-12-15T06:25:18;-1.40;99.90
4596;DHT22;2310;49.978;8.742;2022-12-15T06:29:20;-1.40;99.90
4596;DHT22;2310;49.978;8.742;2022-12-15T06:33:22;-1.50;99.90
4596;DHT22;2310;49.978;8.742;2022-12-15T06:37:23;-1.60;99.90
4596;DHT22;2310;49.978;8.742;2022-12-15T06:41:24;-1.50;99.90
4596;DHT22;2310;49.978;8.742;2022-12-15T06:45:25;-1.60;99.90
4596;DHT22;2310;49.978;8.742;2022-12-15T06:49:26;-1.50;99.90
4596;DHT22;2310;49.978;8.742;2022-12-15T06:53:27;-1.50;99.90
4596;DHT22;2310;49.978;8.742;2022-12-15T06:57:29;-1.50;99.90
4596;DHT22;2310;49.978;8.742;2022-12-15T07:01:31;-1.50;99.90
4596;DHT22;2310;49.978;8.742;2022-12-15T07:05:33;-1.40;99.90
4596;DHT22;2310;49.978;8.742;2022-12-15T07:09:34;-1.70;99.90
4596;DHT22;2310;49.978;8.742;2022-12-15T07:13:35;-1.90;99.90
4596;DHT22;2310;49.978;8.742;2022-12-15T07:17:37;-1.60;99.90
4596;DHT22;2310;49.978;8.742;2022-12-15T07:21:38;-1.50;99.90
4596;DHT22;2310;49.978;8.742;2022-12-15T07:25:41;-1.70;99.90
4596;DHT22;2310;49.978;8.742;2022-12-15T07:29:42;-1.70;99.90
4596;DHT22;2310;49.978;8.742;2022-12-15T07:33:43;-1.60;99.90
4596;DHT22;2310;49.978;8.742;2022-12-15T07:37:45;-1.30;99.90
4596;DHT22;2310;49.978;8.742;2022-12-15T07:41:46;-1.20;99.90
4596;DHT22;2310;49.978;8.742;2022-12-15T07:45:51;-1.20;99.90
4596;DHT22;2310;49.978;8.742;2022-12-15T07:49:53;-1.20;99.90
4596;DHT22;2310;49.978;8.742;2022-12-15T07:53:54;-1.30;99.90
4596;DHT22;2310;49.978;8.742;2022-12-15T07:57:55;-1.20;99.90
4596;DHT22;2310;49.978;8.742;2022-12-15T08:01:57;-1.30;99.90
4596;DHT22;2310;49.978;8.742;2022-12-15T08:06:09;-1.30;99.90
4596;DHT22;2310;49.978;8.742;2022-12-15T08:10:11;-1.10;99.90
4596;DHT22;2310;49.978;8.742;2022-12-15T08:14:12;-1.10;99.90
4596;DHT22;2310;49.978;8.742;2022-12-15T08:18:15;-1.00;99.90
4596;DHT22;2310;49.978;8.742;2022-12-15T08:22:16;-0.80;99.90
4596;DHT22;2310;49.978;8.742;2022-12-15T08:26:18;-0.90;99.90
4596;DHT22;2310;49.978;8.742;2022-12-15T08:30:19;-1.10;99.90
4596;DHT22;2310;49.978;8.742;2022-12-15T08:34:21;-1.00;99.90
4596;DHT22;2310;49.978;8.742;2022-12-15T08:38:22;-1.30;99.90
4596;DHT22;2310;49.978;8.742;2022-12-15T08:42:24;-1.10;99.90
4596;DHT22;2310;49.978;8.742;2022-12-15T08:46:30;-1.10;99.90
4596;DHT22;2310;49.978;8.742;2022-12-15T08:50:33;-1.10;99.90
4596;DHT22;2310;49.978;8.742;2022-12-15T08:54:34;-1.20;99.90
4596;DHT22;2310;49.978;8.742;2022-12-15T08:58:35;-1.00;99.90
4596;DHT22;2310;49.978;8.742;2022-12-15T09:02:36;-0.80;99.90
4596;DHT22;2310;49.978;8.742;2022-12-15T09:06:38;-0.90;99.90
4596;DHT22;2310;49.978;8.742;2022-12-15T09:10:39;-0.90;99.90
4596;DHT22;2310;49.978;8.742;2022-12-15T09:14:41;-1.00;99.90
4596;DHT22;2310;49.978;8.742;2022-12-15T09:18:45;-0.80;99.90
4596;DHT22;2310;49.978;8.742;2022-12-15T09:22:46;-0.70;99.90
4596;DHT22;2310;49.978;8.742;2022-12-15T09:26:49;-0.60;99.90
4596;DHT22;2310;49.978;8.742;2022-12-15T09:30:57;-0.30;99.90
4596;DHT22;2310;49.978;8.742;2022-12-15T09:34:54;0.80;99.90
4596;DHT22;2310;49.978;8.742;2022-12-15T09:38:55;0.30;99.90
4596;DHT22;2310;49.978;8.742;2022-12-15T09:42:57;0.00;99.90
4596;DHT22;2310;49.978;8.742;2022-12-15T09:51:17;-0.40;99.90
4596;DHT22;2310;49.978;8.742;2022-12-15T09:55:21;-0.60;99.90
4596;DHT22;2310;49.978;8.742;2022-12-15T09:59:49;-0.60;99.90
4596;DHT22;2310;49.978;8.742;2022-12-15T10:08:11;-0.70;99.90
4596;DHT22;2310;49.978;8.742;2022-12-15T10:12:17;-0.60;99.90
4596;DHT22;2310;49.978;8.742;2022-12-15T10:16:29;-0.40;99.90
4596;DHT22;2310;49.978;8.742;2022-12-15T10:20:30;-0.20;99.90
4596;DHT22;2310;49.978;8.742;2022-12-15T10:24:32;-0.40;99.90
4596;DHT22;2310;49.978;8.742;2022-12-15T10:28:47;-0.30;99.90
4596;DHT22;2310;49.978;8.742;2022-12-15T10:32:56;-0.60;99.90
4596;DHT22;2310;49.978;8.742;2022-12-15T10:36:53;-0.80;99.90
4596;DHT22;2310;49.978;8.742;2022-12-15T10:41:09;-0.80;99.90
4596;DHT22;2310;49.978;8.742;2022-12-15T10:45:34;-0.70;99.90
4596;DHT22;2310;49.978;8.742;2022-12-15T10:49:37;-0.70;99.90
4596;DHT22;2310;49.978;8.742;2022-12-15T10:53:42;-0.50;99.90
4596;DHT22;2310;49.978;8.742;2022-12-15T10:57:51;-0.50;99.90
4596;DHT22;2310;49.978;8.742;2022-12-15T11:01:49;-0.20;99.90
4596;DHT22;2310;49.978;8.742;2022-12-15T11:05:53;-0.30;99.90
4596;DHT22;2310;49.978;8.742;2022-12-15T11:09:59;-0.30;99.90
4596;DHT22;2310;49.978;8.742;2022-12-15T11:14:10;-0.20;99.90
4596;DHT22;2310;49.978;8.742;2022-12-15T11:31:04;0.00;99.90
4596;DHT22;2310;49.978;8.742;2022-12-15T11:35:10;0.00;99.90
4596;DHT22;2310;49.978;8.742;2022-12-15T11:39:19;0.10;99.90
4596;DHT22;2310;49.978;8.742;2022-12-15T11:43:26;0.30;99.90
4596;DHT22;2310;49.978;8.742;2022-12-15T11:48:04;0.10;99.90
4596;DHT22;2310;49.978;8.742;2022-12-15T11:52:13;0.30;99.90
4596;DHT22;2310;49.978;8.742;2022-12-15T11:56:33;0.30;99.90
4596;DHT22;2310;49.978;8.742;2022-12-15T12:00:42;0.20;99.90
4596;DHT22;2310;49.978;8.742;2022-12-15T12:18:22;0.30;99.90
4596;DHT22;2310;49.978;8.742;2022-12-15T12:22:29;0.00;99.90
4596;DHT22;2310;49.978;8.742;2022-12-15T12:26:40;-0.10;99.90
4596;DHT22;2310;49.978;8.742;2022-12-15T12:30:46;-0.20;99.90
4596;DHT22;2310;49.978;8.742;2022-12-15T12:39:17;-0.20;99.90
4596;DHT22;2310;49.978;8.742;2022-12-15T12:47:29;0.10;99.90
4596;DHT22;2310;49.978;8.742;2022-12-15T12:51:33;-0.20;99.90
4596;DHT22;2310;49.978;8.742;2022-12-15T12:55:40;-0.10;99.90
4596;DHT22;2310;49.978;8.742;2022-12-15T13:00:00;0.10;99.90
4596;DHT22;2310;49.978;8.742;2022-12-15T13:16:45;0.00;99.90
4596;DHT22;2310;49.978;8.742;2022-12-15T13:20:54;0.10;99.90
4596;DHT22;2310;49.978;8.742;2022-12-15T13:25:01;0.20;99.90
4596;DHT22;2310;49.978;8.742;2022-12-15T13:29:07;0.30;99.90
4596;DHT22;2310;49.978;8.742;2022-12-15T13:33:16;0.20;99.90
4596;DHT22;2310;49.978;8.742;2022-12-15T13:37:49;0.20;99.90
4596;DHT22;2310;49.978;8.742;2022-12-15T13:46:10;0.00;99.90
4596;DHT22;2310;49.978;8.742;2022-12-15T13:50:14;-0.10;99.90
4596;DHT22;2310;49.978;8.742;2022-12-15T13:54:22;-0.20;99.90
4596;DHT22;2310;49.978;8.742;2022-12-15T13:58:29;-0.30;99.90
4596;DHT22;2310;49.978;8.742;2022-12-15T14:02:35;-0.40;99.90
4596;DHT22;2310;49.978;8.742;2022-12-15T14:06:46;-0.60;99.90
4596;DHT22;2310;49.978;8.742;2022-12-15T14:10:57;-0.50;99.90
4596;DHT22;2310;49.978;8.742;2022-12-15T14:14:56;-0.40;99.90
4596;DHT22;2310;49.978;8.742;2022-12-15T14:19:11;-0.60;99.90
4596;DHT22;2310;49.978;8.742;2022-12-15T14:23:25;-0.60;99.90
4596;DHT22;2310;49.978;8.742;2022-12-15T14:27:30;-0.60;99.90
4596;DHT22;2310;49.978;8.742;2022-12-15T14:31:40;-0.60;99.90
4596;DHT22;2310;49.978;8.742;2022-12-15T14:35:45;-0.60;99.90
4596;DHT22;2310;49.978;8.742;2022-12-15T14:39:49;-0.50;99.90
4596;DHT22;2310;49.978;8.742;2022-12-15T14:43:56;-0.20;99.90
4596;DHT22;2310;49.978;8.742;2022-12-15T14:48:06;-0.10;99.90
4596;DHT22;2310;49.978;8.742;2022-12-15T14:56:28;-0.40;99.90
4596;DHT22;2310;49.978;8.742;2022-12-15T15:00:47;-0.60;99.90
4596;DHT22;2310;49.978;8.742;2022-12-15T15:04:40;-0.70;99.90
4596;DHT22;2310;49.978;8.742;2022-12-15T15:08:48;-0.50;99.90
4596;DHT22;2310;49.978;8.742;2022-12-15T15:12:58;-0.50;99.90
4596;DHT22;2310;49.978;8.742;2022-12-15T15:17:28;-0.50;99.90
4596;DHT22;2310;49.978;8.742;2022-12-15T15:21:36;-0.60;99.90
4596;DHT22;2310;49.978;8.742;2022-12-15T15:25:49;-0.60;99.90
4596;DHT22;2310;49.978;8.742;2022-12-15T15:30:05;-0.80;99.90
4596;DHT22;2310;49.978;8.742;2022-12-15T15:34:03;-0.70;99.90
4596;DHT22;2310;49.978;8.742;2022-12-15T15:38:23;-0.80;99.90
4596;DHT22;2310;49.978;8.742;2022-12-15T15:42:29;-0.90;99.90
4596;DHT22;2310;49.978;8.742;2022-12-15T15:46:36;-0.80;99.90
4596;DHT22;2310;49.978;8.742;2022-12-15T15:50:45;-0.70;99.90
4596;DHT22;2310;49.978;8.742;2022-12-15T15:54:54;-0.70;99.90
4596;DHT22;2310;49.978;8.742;2022-12-15T15:59:11;-0.30;99.90
4596;DHT22;2310;49.978;8.742;2022-12-15T16:03:13;-0.40;99.90
4596;DHT22;2310;49.978;8.742;2022-12-15T16:07:23;-0.60;99.90
4596;DHT22;2310;49.978;8.742;2022-12-15T16:11:27;-0.60;99.90
4596;DHT22;2310;49.978;8.742;2022-12-15T16:15:30;-0.70;99.90
4596;DHT22;2310;49.978;8.742;2022-12-15T16:19:32;-0.70;99.90
4596;DHT22;2310;49.978;8.742;2022-12-15T16:23:36;-0.70;99.90
4596;DHT22;2310;49.978;8.742;2022-12-15T16:27:37;-1.00;99.90
4596;DHT22;2310;49.978;8.742;2022-12-15T16:31:38;-1.00;99.90
4596;DHT22;2310;49.978;8.742;2022-12-15T16:35:43;-1.00;99.90
4596;DHT22;2310;49.978;8.742;2022-12-15T16:39:45;-1.10;99.90
4596;DHT22;2310;49.978;8.742;2022-12-15T16:43:46;-0.90;99.90
4596;DHT22;2310;49.978;8.742;2022-12-15T16:47:49;-0.80;99.90
4596;DHT22;2310;49.978;8.742;2022-12-15T16:51:52;-1.00;99.90
4596;DHT22;2310;49.978;8.742;2022-12-15T16:55:56;-0.90;99.90
4596;DHT22;2310;49.978;8.742;2022-12-15T16:59:57;-0.80;99.90
4596;DHT22;2310;49.978;8.742;2022-12-15T17:03:59;-0.60;99.90
4596;DHT22;2310;49.978;8.742;2022-12-15T17:08:03;-0.60;99.90
4596;DHT22;2310;49.978;8.742;2022-12-15T17:12:07;-0.50;99.90
4596;DHT22;2310;49.978;8.742;2022-12-15T17:16:09;-0.50;99.90
4596;DHT22;2310;49.978;8.742;2022-12-15T17:20:19;-0.40;99.90
4596;DHT22;2310;49.978;8.742;2022-12-15T17:24:20;-0.30;99.90
4596;DHT22;2310;49.978;8.742;2022-12-15T17:28:26;-0.20;99.90
4596;DHT22;2310;49.978;8.742;2022-12-15T17:32:27;-0.10;99.90
4596;DHT22;2310;49.978;8.742;2022-12-15T17:36:53;-0.10;99.90
4596;DHT22;2310;49.978;8.742;2022-12-15T17:41:20;-0.10;99.90
4596;DHT22;2310;49.978;8.742;2022-12-15T18:08:30;0.60;99.90
4596;DHT22;2310;49.978;8.742;2022-12-15T18:12:33;0.40;99.90
4596;DHT22;2310;49.978;8.742;2022-12-15T18:16:36;0.20;99.90
4596;DHT22;2310;49.978;8.742;2022-12-15T18:20:38;0.10;99.90
4596;DHT22;2310;49.978;8.742;2022-12-15T18:24:39;0.00;99.90
4596;DHT22;2310;49.978;8.742;2022-12-15T18:28:40;-0.20;99.90
4596;DHT22;2310;49.978;8.742;2022-12-15T18:32:42;-0.20;99.90
4596;DHT22;2310;49.978;8.742;2022-12-15T18:36:44;-0.60;99.90
4596;DHT22;2310;49.978;8.742;2022-12-15T18:40:47;-0.80;99.90
4596;DHT22;2310;49.978;8.742;2022-12-15T18:44:51;-0.80;99.90
4596;DHT22;2310;49.978;8.742;2022-12-15T18:48:52;-0.90;99.90
4596;DHT22;2310;49.978;8.742;2022-12-15T18:53:00;-0.70;99.90
4596;DHT22;2310;49.978;8.742;2022-12-15T18:57:02;-0.80;99.90
4596;DHT22;2310;49.978;8.742;2022-12-15T19:01:05;-0.90;99.90
4596;DHT22;2310;49.978;8.742;2022-12-15T19:05:07;-1.10;99.90
4596;DHT22;2310;49.978;8.742;2022-12-15T19:09:17;-1.00;99.90
4596;DHT22;2310;49.978;8.742;2022-12-15T19:13:20;-1.00;99.90
4596;DHT22;2310;49.978;8.742;2022-12-15T19:17:23;-1.00;99.90
4596;DHT22;2310;49.978;8.742;2022-12-15T19:21:42;-1.00;99.90
4596;DHT22;2310;49.978;8.742;2022-12-15T19:26:03;-0.90;99.90
4596;DHT22;2310;49.978;8.742;2022-12-15T19:30:11;-0.90;99.90
4596;DHT22;2310;49.978;8.742;2022-12-15T19:34:08;-1.20;99.90
4596;DHT22;2310;49.978;8.742;2022-12-15T19:38:19;-1.10;99.90
4596;DHT22;2310;49.978;8.742;2022-12-15T19:42:26;-1.10;99.90
4596;DHT22;2310;49.978;8.742;2022-12-15T19:46:26;-1.10;99.90
4596;DHT22;2310;49.978;8.742;2022-12-15T19:50:30;-1.40;99.90
4596;DHT22;2310;49.978;8.742;2022-12-15T19:54:36;-1.20;99.90
4596;DHT22;2310;49.978;8.742;2022-12-15T19:58:37;-1.40;99.90
4596;DHT22;2310;49.978;8.742;2022-12-15T20:02:39;-1.50;99.90
4596;DHT22;2310;49.978;8.742;2022-12-15T20:06:40;-1.60;99.90
4596;DHT22;2310;49.978;8.742;2022-12-15T20:10:41;-1.70;99.90
4596;DHT22;2310;49.978;8.742;2022-12-15T20:14:43;-1.70;99.90
4596;DHT22;2310;49.978;8.742;2022-12-15T20:18:50;-1.60;99.90
4596;DHT22;2310;49.978;8.742;2022-12-15T20:22:57;-1.70;99.90
4596;DHT22;2310;49.978;8.742;2022-12-15T20:27:01;-1.90;99.90
4596;DHT22;2310;49.978;8.742;2022-12-15T20:31:04;-1.70;99.90
4596;DHT22;2310;49.978;8.742;2022-12-15T20:35:06;-1.60;99.90
4596;DHT22;2310;49.978;8.742;2022-12-15T20:43:32;-1.50;99.90
4596;DHT22;2310;49.978;8.742;2022-12-15T20:47:36;-1.30;99.90
4596;DHT22;2310;49.978;8.742;2022-12-15T20:51:40;-1.40;99.90
4596;DHT22;2310;49.978;8.742;2022-12-15T20:55:41;-1.50;99.90
4596;DHT22;2310;49.978;8.742;2022-12-15T20:59:43;-1.50;99.90
4596;DHT22;2310;49.978;8.742;2022-12-15T21:03:45;-1.50;99.90
4596;DHT22;2310;49.978;8.742;2022-12-15T21:07:47;-1.40;99.90
4596;DHT22;2310;49.978;8.742;2022-12-15T21:11:48;-1.30;99.90
4596;DHT22;2310;49.978;8.742;2022-12-15T21:15:52;-1.30;99.90
4596;DHT22;2310;49.978;8.742;2022-12-15T21:19:54;-1.50;99.90
4596;DHT22;2310;49.978;8.742;2022-12-15T21:24:00;-1.60;99.90
4596;DHT22;2310;49.978;8.742;2022-12-15T21:28:04;-1.60;99.90
4596;DHT22;2310;49.978;8.742;2022-12-15T21:32:04;-1.60;99.90
4596;DHT22;2310;49.978;8.742;2022-12-15T21:36:12;-1.80;99.90
4596;DHT22;2310;49.978;8.742;2022-12-15T21:40:19;-1.70;99.90
4596;DHT22;2310;49.978;8.742;2022-12-15T21:44:22;-1.70;99.90
4596;DHT22;2310;49.978;8.742;2022-12-15T21:48:24;-1.80;99.90
4596;DHT22;2310;49.978;8.742;2022-12-15T21:52:44;-1.70;99.90
4596;DHT22;2310;49.978;8.742;2022-12-15T21:56:47;-1.60;99.90
4596;DHT22;2310;49.978;8.742;2022-12-15T22:00:52;-1.70;99.90
4596;DHT22;2310;49.978;8.742;2022-12-15T22:04:59;-1.90;99.90
4596;DHT22;2310;49.978;8.742;2022-12-15T22:08:58;-2.10;99.90
4596;DHT22;2310;49.978;8.742;2022-12-15T22:13:01;-2.10;99.90
4596;DHT22;2310;49.978;8.742;2022-12-15T22:17:13;-2.10;99.90
4596;DHT22;2310;49.978;8.742;2022-12-15T22:21:14;-2.00;99.90
4596;DHT22;2310;49.978;8.742;2022-12-15T22:25:21;-2.00;99.90
4596;DHT22;2310;49.978;8.742;2022-12-15T22:29:23;-2.00;99.90
4596;DHT22;2310;49.978;8.742;2022-12-15T22:33:25;-1.80;99.90
4596;DHT22;2310;49.978;8.742;2022-12-15T22:37:27;-1.60;99.90
4596;DHT22;2310;49.978;8.742;2022-12-15T22:41:28;-1.80;99.90
4596;DHT22;2310;49.978;8.742;2022-12-15T22:45:29;-1.80;99.90
4596;DHT22;2310;49.978;8.742;2022-12-15T22:49:34;-1.70;99.90
4596;DHT22;2310;49.978;8.742;2022-12-15T22:53:36;-1.60;99.90
4596;DHT22;2310;49.978;8.742;2022-12-15T22:57:37;-1.60;99.90
4596;DHT22;2310;49.978;8.742;2022-12-15T23:01:38;-1.70;99.90
4596;DHT22;2310;49.978;8.742;2022-12-15T23:05:40;-1.50;99.90
4596;DHT22;2310;49.978;8.742;2022-12-15T23:09:42;-1.80;99.90
4596;DHT22;2310;49.978;8.742;2022-12-15T23:13:43;-1.80;99.90
4596;DHT22;2310;49.978;8.742;2022-12-15T23:17:44;-1.90;99.90
4596;DHT22;2310;49.978;8.742;2022-12-15T23:21:45;-1.80;99.90
4596;DHT22;2310;49.978;8.742;2022-12-15T23:25:46;-1.80;99.90
4596;DHT22;2310;49.978;8.742;2022-12-15T23:29:47;-1.90;99.90
4596;DHT22;2310;49.978;8.742;2022-12-15T23:33:49;-2.00;99.90
4596;DHT22;2310;49.978;8.742;2022-12-15T23:37:52;-2.10;99.90
4596;DHT22;2310;49.978;8.742;2022-12-15T23:41:53;-1.90;99.90
4596;DHT22;2310;49.978;8.742;2022-12-15T23:46:03;-2.00;99.90
4596;DHT22;2310;49.978;8.742;2022-12-15T23:50:05;-2.10;99.90
4596;DHT22;2310;49.978;8.742;2022-12-15T23:54:07;-2.10;99.90
4596;DHT22;2310;49.978;8.742;2022-12-15T23:58:08;-2.00;99.90
